sensor_id;sensor_type;location;lat;lon;timestamp;pressure;altitude;pressure_sealevel;temperature;humidity
75617;BME280;64200;55.426;37.758;2024-03-22T00:01:50;99721.91;;;2.26;43.90
75617;BME280;64200;55.426;37.758;2024-03-22T00:06:51;99722.34;;;2.21;44.52
75617;BME280;64200;55.426;37.758;2024-03-22T00:11:52;99728.78;;;2.07;44.97
75617;BME280;64200;55.426;37.758;2024-03-22T00:16:52;99738.94;;;2.14;44.55
75617;BME280;64200;55.426;37.758;2024-03-22T00:21:53;99732.44;;;2.39;44.33
75617;BME280;64200;55.426;37.758;2024-03-22T00:26:53;99725.31;;;1.96;45.16
75617;BME280;64200;55.426;37.758;2024-03-22T00:31:54;99728.84;;;1.97;45.56
75617;BME280;64200;55.426;37.758;2024-03-22T00:36:54;99717.41;;;2.02;45.20
75617;BME280;64200;55.426;37.758;2024-03-22T00:41:55;99708.09;;;1.85;45.68
75617;BME280;64200;55.426;37.758;2024-03-22T00:46:55;99715.28;;;1.71;46.38
75617;BME280;64200;55.426;37.758;2024-03-22T00:51:56;99710.59;;;1.72;46.18
75617;BME280;64200;55.426;37.758;2024-03-22T00:56:57;99725.59;;;1.56;46.57
75617;BME280;64200;55.426;37.758;2024-03-22T01:01:57;99707.19;;;1.46;46.42
75617;BME280;64200;55.426;37.758;2024-03-22T01:06:58;99715.44;;;1.46;47.09
75617;BME280;64200;55.426;37.758;2024-03-22T01:11:59;99710.69;;;1.54;47.01
75617;BME280;64200;55.426;37.758;2024-03-22T01:16:59;99701.75;;;1.43;47.04
75617;BME280;64200;55.426;37.758;2024-03-22T01:22:00;99696.69;;;1.30;47.63
75617;BME280;64200;55.426;37.758;2024-03-22T01:27:00;99688.81;;;1.39;47.87
75617;BME280;64200;55.426;37.758;2024-03-22T01:32:03;99691.19;;;1.30;48.02
75617;BME280;64200;55.426;37.758;2024-03-22T01:37:03;99686.09;;;1.32;47.86
75617;BME280;64200;55.426;37.758;2024-03-22T01:42:04;99690.47;;;1.26;48.16
75617;BME280;64200;55.426;37.758;2024-03-22T01:47:05;99684.16;;;1.26;48.95
75617;BME280;64200;55.426;37.758;2024-03-22T01:52:06;99675.88;;;1.36;48.18
75617;BME280;64200;55.426;37.758;2024-03-22T01:57:06;99661.38;;;1.32;47.79
75617;BME280;64200;55.426;37.758;2024-03-22T02:02:07;99660.19;;;1.33;48.12
75617;BME280;64200;55.426;37.758;2024-03-22T02:07:08;99657.00;;;1.38;47.89
75617;BME280;64200;55.426;37.758;2024-03-22T02:12:09;99652.78;;;1.23;48.64
75617;BME280;64200;55.426;37.758;2024-03-22T02:17:10;99658.72;;;1.14;48.72
75617;BME280;64200;55.426;37.758;2024-03-22T02:22:10;99653.97;;;1.22;48.31
75617;BME280;64200;55.426;37.758;2024-03-22T02:27:11;99651.72;;;1.02;48.67
75617;BME280;64200;55.426;37.758;2024-03-22T02:32:12;99646.59;;;1.08;49.12
75617;BME280;64200;55.426;37.758;2024-03-22T02:37:12;99642.28;;;1.07;49.17
75617;BME280;64200;55.426;37.758;2024-03-22T02:42:13;99644.22;;;1.10;49.51
75617;BME280;64200;55.426;37.758;2024-03-22T02:47:13;99643.34;;;1.28;49.02
75617;BME280;64200;55.426;37.758;2024-03-22T02:52:15;99646.44;;;1.33;49.12
75617;BME280;64200;55.426;37.758;2024-03-22T02:57:16;99632.19;;;0.90;49.91
75617;BME280;64200;55.426;37.758;2024-03-22T03:02:17;99632.13;;;0.97;49.72
75617;BME280;64200;55.426;37.758;2024-03-22T03:07:17;99620.34;;;1.00;49.56
75617;BME280;64200;55.426;37.758;2024-03-22T03:12:18;99610.91;;;1.08;50.00
75617;BME280;64200;55.426;37.758;2024-03-22T03:17:18;99612.47;;;1.02;49.55
75617;BME280;64200;55.426;37.758;2024-03-22T03:22:19;99608.63;;;0.92;50.39
75617;BME280;64200;55.426;37.758;2024-03-22T03:27:19;99606.34;;;0.76;50.66
75617;BME280;64200;55.426;37.758;2024-03-22T03:32:20;99600.06;;;0.79;50.71
75617;BME280;64200;55.426;37.758;2024-03-22T03:37:21;99613.03;;;0.75;50.72
75617;BME280;64200;55.426;37.758;2024-03-22T03:42:22;99602.44;;;0.74;50.46
75617;BME280;64200;55.426;37.758;2024-03-22T03:47:22;99592.22;;;0.78;50.42
75617;BME280;64200;55.426;37.758;2024-03-22T03:52:23;99585.72;;;1.13;50.48
75617;BME280;64200;55.426;37.758;2024-03-22T03:57:23;99582.16;;;1.16;49.94
75617;BME280;64200;55.426;37.758;2024-03-22T04:02:24;99573.94;;;1.16;49.55
75617;BME280;64200;55.426;37.758;2024-03-22T04:07:25;99591.19;;;1.20;50.09
75617;BME280;64200;55.426;37.758;2024-03-22T04:12:26;99579.22;;;0.85;50.31
75617;BME280;64200;55.426;37.758;2024-03-22T04:17:27;99596.28;;;1.18;50.35
75617;BME280;64200;55.426;37.758;2024-03-22T04:22:27;99577.31;;;0.75;51.68
75617;BME280;64200;55.426;37.758;2024-03-22T04:27:28;99587.34;;;1.07;50.53
75617;BME280;64200;55.426;37.758;2024-03-22T04:32:29;99564.31;;;1.39;49.70
75617;BME280;64200;55.426;37.758;2024-03-22T04:37:29;99570.81;;;1.63;49.45
75617;BME280;64200;55.426;37.758;2024-03-22T04:42:30;99567.47;;;1.83;48.92
75617;BME280;64200;55.426;37.758;2024-03-22T04:47:30;99562.38;;;1.81;48.43
75617;BME280;64200;55.426;37.758;2024-03-22T04:52:31;99575.19;;;1.99;48.79
75617;BME280;64200;55.426;37.758;2024-03-22T04:57:32;99570.44;;;1.99;48.54
75617;BME280;64200;55.426;37.758;2024-03-22T05:02:32;99576.66;;;2.07;48.26
75617;BME280;64200;55.426;37.758;2024-03-22T05:07:33;99580.03;;;2.56;47.90
75617;BME280;64200;55.426;37.758;2024-03-22T05:12:34;99584.69;;;2.90;46.34
75617;BME280;64200;55.426;37.758;2024-03-22T05:17:35;99575.78;;;3.33;46.02
75617;BME280;64200;55.426;37.758;2024-03-22T05:22:39;99575.53;;;3.72;45.19
75617;BME280;64200;55.426;37.758;2024-03-22T05:27:39;99566.44;;;3.75;44.71
75617;BME280;64200;55.426;37.758;2024-03-22T05:32:42;99554.19;;;3.52;45.45
75617;BME280;64200;55.426;37.758;2024-03-22T05:37:42;99559.81;;;3.45;44.72
75617;BME280;64200;55.426;37.758;2024-03-22T05:42:43;99572.06;;;4.31;44.28
75617;BME280;64200;55.426;37.758;2024-03-22T05:47:44;99570.47;;;4.70;43.75
75617;BME280;64200;55.426;37.758;2024-03-22T05:52:44;99564.06;;;5.10;42.45
75617;BME280;64200;55.426;37.758;2024-03-22T05:57:45;99558.78;;;5.32;42.02
75617;BME280;64200;55.426;37.758;2024-03-22T06:02:45;99554.88;;;5.62;42.65
75617;BME280;64200;55.426;37.758;2024-03-22T06:07:46;99541.16;;;6.05;41.14
75617;BME280;64200;55.426;37.758;2024-03-22T06:12:46;99552.13;;;6.50;41.18
75617;BME280;64200;55.426;37.758;2024-03-22T06:17:47;99550.41;;;6.95;40.34
75617;BME280;64200;55.426;37.758;2024-03-22T06:22:48;99549.25;;;7.44;39.30
75617;BME280;64200;55.426;37.758;2024-03-22T06:27:48;99544.63;;;7.76;38.54
75617;BME280;64200;55.426;37.758;2024-03-22T06:32:49;99534.06;;;8.06;37.60
75617;BME280;64200;55.426;37.758;2024-03-22T06:37:50;99542.41;;;8.28;37.40
75617;BME280;64200;55.426;37.758;2024-03-22T06:42:50;99539.09;;;8.65;36.10
75617;BME280;64200;55.426;37.758;2024-03-22T06:47:51;99542.53;;;9.09;35.22
75617;BME280;64200;55.426;37.758;2024-03-22T06:52:51;99534.38;;;9.24;34.18
75617;BME280;64200;55.426;37.758;2024-03-22T06:57:53;99532.91;;;9.79;34.58
75617;BME280;64200;55.426;37.758;2024-03-22T07:02:54;99537.38;;;10.50;32.89
75617;BME280;64200;55.426;37.758;2024-03-22T07:07:56;99542.06;;;11.20;31.86
75617;BME280;64200;55.426;37.758;2024-03-22T07:12:57;99538.34;;;11.48;31.07
75617;BME280;64200;55.426;37.758;2024-03-22T07:17:58;99526.28;;;11.66;30.51
75617;BME280;64200;55.426;37.758;2024-03-22T07:22:59;99519.78;;;12.23;30.26
75617;BME280;64200;55.426;37.758;2024-03-22T07:27:59;99521.78;;;12.82;28.95
75617;BME280;64200;55.426;37.758;2024-03-22T07:33:00;99507.91;;;13.64;27.24
75617;BME280;64200;55.426;37.758;2024-03-22T07:38:00;99505.16;;;14.43;26.61
75617;BME280;64200;55.426;37.758;2024-03-22T07:43:01;99498.75;;;15.01;25.51
75617;BME280;64200;55.426;37.758;2024-03-22T07:48:07;99492.56;;;16.06;24.93
75617;BME280;64200;55.426;37.758;2024-03-22T07:53:07;99487.25;;;16.47;23.78
75617;BME280;64200;55.426;37.758;2024-03-22T07:58:08;99490.06;;;17.04;22.95
75617;BME280;64200;55.426;37.758;2024-03-22T08:03:14;99490.47;;;18.01;20.92
75617;BME280;64200;55.426;37.758;2024-03-22T08:08:15;99478.44;;;18.36;20.51
75617;BME280;64200;55.426;37.758;2024-03-22T08:13:16;99473.81;;;19.43;19.68
75617;BME280;64200;55.426;37.758;2024-03-22T08:18:17;99464.47;;;19.92;19.03
75617;BME280;64200;55.426;37.758;2024-03-22T08:23:17;99452.50;;;20.83;18.18
75617;BME280;64200;55.426;37.758;2024-03-22T08:28:20;99445.31;;;21.09;16.39
75617;BME280;64200;55.426;37.758;2024-03-22T08:33:21;99438.34;;;20.97;16.27
75617;BME280;64200;55.426;37.758;2024-03-22T08:38:21;99444.72;;;22.12;14.80
75617;BME280;64200;55.426;37.758;2024-03-22T08:43:22;99441.75;;;22.18;16.55
75617;BME280;64200;55.426;37.758;2024-03-22T08:48:25;99439.06;;;23.85;14.44
75617;BME280;64200;55.426;37.758;2024-03-22T08:53:26;99429.69;;;22.67;14.30
75617;BME280;64200;55.426;37.758;2024-03-22T08:58:27;99421.75;;;22.73;14.14
75617;BME280;64200;55.426;37.758;2024-03-22T09:03:27;99417.56;;;23.24;13.82
75617;BME280;64200;55.426;37.758;2024-03-22T09:08:28;99391.84;;;24.13;12.01
75617;BME280;64200;55.426;37.758;2024-03-22T09:13:29;99384.44;;;24.33;11.81
75617;BME280;64200;55.426;37.758;2024-03-22T09:18:30;99379.31;;;24.47;12.02
75617;BME280;64200;55.426;37.758;2024-03-22T09:23:31;99381.81;;;26.79;10.73
75617;BME280;64200;55.426;37.758;2024-03-22T09:28:32;99365.69;;;21.68;12.85
75617;BME280;64200;55.426;37.758;2024-03-22T09:33:35;99381.59;;;24.48;11.53
75617;BME280;64200;55.426;37.758;2024-03-22T09:38:36;99376.66;;;24.80;9.81
75617;BME280;64200;55.426;37.758;2024-03-22T09:43:38;99372.69;;;26.05;9.73
75617;BME280;64200;55.426;37.758;2024-03-22T09:48:41;99368.53;;;23.62;12.08
75617;BME280;64200;55.426;37.758;2024-03-22T09:53:53;99390.28;;;28.38;9.25
75617;BME280;64200;55.426;37.758;2024-03-22T09:58:56;99375.25;;;28.67;8.68
75617;BME280;64200;55.426;37.758;2024-03-22T10:03:57;99375.13;;;29.53;8.82
75617;BME280;64200;55.426;37.758;2024-03-22T10:08:58;99369.66;;;29.57;7.74
75617;BME280;64200;55.426;37.758;2024-03-22T10:14:00;99368.00;;;30.90;7.84
75617;BME280;64200;55.426;37.758;2024-03-22T10:19:00;99365.41;;;32.30;6.61
75617;BME280;64200;55.426;37.758;2024-03-22T10:24:01;99367.00;;;32.68;7.06
75617;BME280;64200;55.426;37.758;2024-03-22T10:29:06;99354.25;;;32.12;7.38
75617;BME280;64200;55.426;37.758;2024-03-22T10:34:08;99349.06;;;32.11;6.61
75617;BME280;64200;55.426;37.758;2024-03-22T10:39:10;99337.81;;;32.27;6.95
75617;BME280;64200;55.426;37.758;2024-03-22T10:44:16;99329.69;;;33.10;7.08
75617;BME280;64200;55.426;37.758;2024-03-22T10:49:20;99310.81;;;32.10;7.16
75617;BME280;64200;55.426;37.758;2024-03-22T10:54:23;99313.34;;;33.40;6.71
75617;BME280;64200;55.426;37.758;2024-03-22T10:59:25;99307.28;;;30.42;6.85
75617;BME280;64200;55.426;37.758;2024-03-22T11:04:30;99295.63;;;29.77;7.52
75617;BME280;64200;55.426;37.758;2024-03-22T11:09:30;99289.72;;;32.08;7.13
75617;BME280;64200;55.426;37.758;2024-03-22T11:14:31;99284.97;;;31.88;7.29
75617;BME280;64200;55.426;37.758;2024-03-22T11:19:32;99282.91;;;33.79;6.94
75617;BME280;64200;55.426;37.758;2024-03-22T11:24:33;99281.81;;;34.99;5.72
75617;BME280;64200;55.426;37.758;2024-03-22T11:29:33;99277.59;;;35.32;5.12
75617;BME280;64200;55.426;37.758;2024-03-22T11:34:35;99258.72;;;33.33;5.58
75617;BME280;64200;55.426;37.758;2024-03-22T11:39:37;99259.53;;;35.50;5.51
75617;BME280;64200;55.426;37.758;2024-03-22T11:44:39;99247.06;;;34.56;5.77
75617;BME280;64200;55.426;37.758;2024-03-22T11:49:40;99228.88;;;34.25;5.62
75617;BME280;64200;55.426;37.758;2024-03-22T11:54:41;99225.50;;;33.34;6.17
75617;BME280;64200;55.426;37.758;2024-03-22T11:59:41;99219.75;;;32.56;6.31
75617;BME280;64200;55.426;37.758;2024-03-22T12:04:43;99209.25;;;33.01;6.78
75617;BME280;64200;55.426;37.758;2024-03-22T12:09:44;99197.47;;;32.97;6.97
75617;BME280;64200;55.426;37.758;2024-03-22T12:14:45;99193.66;;;32.54;6.82
75617;BME280;64200;55.426;37.758;2024-03-22T12:19:45;99170.97;;;30.59;8.30
75617;BME280;64200;55.426;37.758;2024-03-22T12:24:46;99167.84;;;31.95;7.61
75617;BME280;64200;55.426;37.758;2024-03-22T12:29:46;99166.84;;;35.52;6.45
75617;BME280;64200;55.426;37.758;2024-03-22T12:34:47;99155.25;;;36.20;5.47
75617;BME280;64200;55.426;37.758;2024-03-22T12:39:47;99127.28;;;31.20;7.16
75617;BME280;64200;55.426;37.758;2024-03-22T12:44:48;99112.19;;;29.33;8.60
75617;BME280;64200;55.426;37.758;2024-03-22T12:49:49;99103.41;;;30.05;8.79
75617;BME280;64200;55.426;37.758;2024-03-22T12:54:49;99098.25;;;30.25;8.86
75617;BME280;64200;55.426;37.758;2024-03-22T12:59:50;99085.19;;;29.26;8.86
75617;BME280;64200;55.426;37.758;2024-03-22T13:04:51;99061.63;;;21.80;13.58
75617;BME280;64200;55.426;37.758;2024-03-22T13:09:51;99050.91;;;18.26;16.71
75617;BME280;64200;55.426;37.758;2024-03-22T13:14:52;99045.13;;;17.99;17.36
75617;BME280;64200;55.426;37.758;2024-03-22T13:19:53;99039.53;;;17.69;17.63
75617;BME280;64200;55.426;37.758;2024-03-22T13:24:54;99040.22;;;16.35;19.45
75617;BME280;64200;55.426;37.758;2024-03-22T13:29:55;99024.84;;;14.79;21.65
75617;BME280;64200;55.426;37.758;2024-03-22T13:34:55;99038.28;;;15.48;20.98
75617;BME280;64200;55.426;37.758;2024-03-22T13:39:56;99021.03;;;14.76;21.38
75617;BME280;64200;55.426;37.758;2024-03-22T13:44:57;99023.31;;;15.06;21.49
75617;BME280;64200;55.426;37.758;2024-03-22T13:49:58;99011.00;;;14.30;22.47
75617;BME280;64200;55.426;37.758;2024-03-22T13:54:58;99004.91;;;13.11;24.42
75617;BME280;64200;55.426;37.758;2024-03-22T14:00:02;99011.06;;;13.15;24.30
75617;BME280;64200;55.426;37.758;2024-03-22T14:05:03;99012.13;;;13.23;24.01
75617;BME280;64200;55.426;37.758;2024-03-22T14:10:04;98998.78;;;13.50;23.63
75617;BME280;64200;55.426;37.758;2024-03-22T14:15:06;98992.09;;;14.08;23.38
75617;BME280;64200;55.426;37.758;2024-03-22T14:20:07;98992.69;;;13.08;24.25
75617;BME280;64200;55.426;37.758;2024-03-22T14:25:11;98985.84;;;12.77;25.13
75617;BME280;64200;55.426;37.758;2024-03-22T14:30:13;98963.00;;;12.85;25.43
75617;BME280;64200;55.426;37.758;2024-03-22T14:35:15;98958.28;;;13.02;24.93
75617;BME280;64200;55.426;37.758;2024-03-22T14:40:15;98951.19;;;12.05;26.62
75617;BME280;64200;55.426;37.758;2024-03-22T14:45:17;98944.00;;;12.25;26.52
75617;BME280;64200;55.426;37.758;2024-03-22T14:50:21;98934.88;;;12.30;26.35
75617;BME280;64200;55.426;37.758;2024-03-22T14:55:23;98941.22;;;11.78;26.69
75617;BME280;64200;55.426;37.758;2024-03-22T15:00:24;98927.69;;;11.24;27.91
75617;BME280;64200;55.426;37.758;2024-03-22T15:05:26;98934.00;;;11.66;27.47
75617;BME280;64200;55.426;37.758;2024-03-22T15:10:27;98935.00;;;11.42;27.95
75617;BME280;64200;55.426;37.758;2024-03-22T15:15:28;98941.06;;;10.49;29.15
75617;BME280;64200;55.426;37.758;2024-03-22T15:20:29;98938.50;;;10.30;29.35
75617;BME280;64200;55.426;37.758;2024-03-22T15:25:30;98933.16;;;9.34;31.44
75617;BME280;64200;55.426;37.758;2024-03-22T15:30:31;98921.56;;;9.89;30.41
75617;BME280;64200;55.426;37.758;2024-03-22T15:35:32;98921.63;;;9.80;30.79
75617;BME280;64200;55.426;37.758;2024-03-22T15:40:32;98924.19;;;9.14;32.18
75617;BME280;64200;55.426;37.758;2024-03-22T15:45:36;98922.63;;;8.65;33.55
75617;BME280;64200;55.426;37.758;2024-03-22T15:50:38;98917.06;;;9.38;32.55
75617;BME280;64200;55.426;37.758;2024-03-22T15:55:39;98929.78;;;8.48;34.34
75617;BME280;64200;55.426;37.758;2024-03-22T16:00:39;98920.69;;;7.95;35.70
75617;BME280;64200;55.426;37.758;2024-03-22T16:05:52;98927.56;;;8.09;35.95
75617;BME280;64200;55.426;37.758;2024-03-22T16:10:52;98912.09;;;7.47;36.99
75617;BME280;64200;55.426;37.758;2024-03-22T16:15:53;98925.88;;;8.02;36.20
75617;BME280;64200;55.426;37.758;2024-03-22T16:20:54;98910.41;;;8.29;35.39
75617;BME280;64200;55.426;37.758;2024-03-22T16:25:54;98924.34;;;8.01;36.31
75617;BME280;64200;55.426;37.758;2024-03-22T16:30:55;98905.78;;;7.46;37.60
75617;BME280;64200;55.426;37.758;2024-03-22T16:35:56;98902.53;;;7.57;37.32
75617;BME280;64200;55.426;37.758;2024-03-22T16:40:56;98900.97;;;7.28;37.96
75617;BME280;64200;55.426;37.758;2024-03-22T16:45:57;98895.53;;;6.78;39.50
75617;BME280;64200;55.426;37.758;2024-03-22T16:50:57;98892.97;;;7.30;37.87
75617;BME280;64200;55.426;37.758;2024-03-22T16:55:58;98870.09;;;6.71;39.24
75617;BME280;64200;55.426;37.758;2024-03-22T17:01:05;98890.34;;;6.99;38.51
75617;BME280;64200;55.426;37.758;2024-03-22T17:06:07;98886.34;;;7.18;38.22
75617;BME280;64200;55.426;37.758;2024-03-22T17:11:08;98879.38;;;7.42;37.48
75617;BME280;64200;55.426;37.758;2024-03-22T17:16:08;98876.94;;;7.25;37.66
75617;BME280;64200;55.426;37.758;2024-03-22T17:21:09;98878.56;;;6.67;39.16
75617;BME280;64200;55.426;37.758;2024-03-22T17:26:10;98872.78;;;7.20;37.70
75617;BME280;64200;55.426;37.758;2024-03-22T17:31:11;98870.69;;;6.56;39.14
75617;BME280;64200;55.426;37.758;2024-03-22T17:36:12;98885.47;;;6.62;39.32
75617;BME280;64200;55.426;37.758;2024-03-22T17:41:12;98860.09;;;5.92;40.89
75617;BME280;64200;55.426;37.758;2024-03-22T17:46:13;98862.03;;;6.04;40.68
75617;BME280;64200;55.426;37.758;2024-03-22T17:51:14;98870.34;;;6.04;41.20
75617;BME280;64200;55.426;37.758;2024-03-22T17:56:15;98865.63;;;5.92;41.18
75617;BME280;64200;55.426;37.758;2024-03-22T18:01:17;98866.44;;;5.48;42.58
75617;BME280;64200;55.426;37.758;2024-03-22T18:06:18;98842.78;;;6.01;41.00
75617;BME280;64200;55.426;37.758;2024-03-22T18:11:18;98837.25;;;5.47;42.58
75617;BME280;64200;55.426;37.758;2024-03-22T18:16:19;98844.63;;;5.28;42.98
75617;BME280;64200;55.426;37.758;2024-03-22T18:21:20;98830.31;;;5.42;42.65
75617;BME280;64200;55.426;37.758;2024-03-22T18:26:20;98837.66;;;5.01;43.73
75617;BME280;64200;55.426;37.758;2024-03-22T18:31:21;98841.06;;;4.70;45.45
75617;BME280;64200;55.426;37.758;2024-03-22T18:36:23;98822.25;;;4.78;44.87
75617;BME280;64200;55.426;37.758;2024-03-22T18:41:24;98819.78;;;4.58;45.67
75617;BME280;64200;55.426;37.758;2024-03-22T18:46:25;98827.19;;;4.48;46.93
75617;BME280;64200;55.426;37.758;2024-03-22T18:51:25;98811.53;;;4.45;46.75
75617;BME280;64200;55.426;37.758;2024-03-22T18:56:26;98814.44;;;4.29;48.35
75617;BME280;64200;55.426;37.758;2024-03-22T19:01:26;98805.38;;;3.77;50.22
75617;BME280;64200;55.426;37.758;2024-03-22T19:06:27;98802.97;;;4.04;49.56
75617;BME280;64200;55.426;37.758;2024-03-22T19:11:29;98824.94;;;4.08;49.93
75617;BME280;64200;55.426;37.758;2024-03-22T19:16:31;98806.94;;;3.65;51.48
75617;BME280;64200;55.426;37.758;2024-03-22T19:21:31;98796.00;;;3.74;51.25
75617;BME280;64200;55.426;37.758;2024-03-22T19:26:32;98783.38;;;3.34;52.65
75617;BME280;64200;55.426;37.758;2024-03-22T19:31:33;98773.34;;;3.28;52.88
75617;BME280;64200;55.426;37.758;2024-03-22T19:36:34;98789.16;;;3.66;52.42
75617;BME280;64200;55.426;37.758;2024-03-22T19:41:35;98774.13;;;3.41;52.53
75617;BME280;64200;55.426;37.758;2024-03-22T19:46:37;98783.16;;;3.29;53.35
75617;BME280;64200;55.426;37.758;2024-03-22T19:51:38;98786.38;;;3.40;52.56
75617;BME280;64200;55.426;37.758;2024-03-22T19:56:38;98783.06;;;3.58;52.49
75617;BME280;64200;55.426;37.758;2024-03-22T20:01:39;98777.25;;;4.08;51.39
75617;BME280;64200;55.426;37.758;2024-03-22T20:06:39;98769.56;;;3.22;53.83
75617;BME280;64200;55.426;37.758;2024-03-22T20:11:40;98765.75;;;3.58;52.41
75617;BME280;64200;55.426;37.758;2024-03-22T20:16:40;98767.28;;;3.33;53.39
75617;BME280;64200;55.426;37.758;2024-03-22T20:21:41;98756.59;;;3.35;53.38
75617;BME280;64200;55.426;37.758;2024-03-22T20:26:42;98764.31;;;3.40;52.90
75617;BME280;64200;55.426;37.758;2024-03-22T20:31:42;98750.44;;;3.57;52.75
75617;BME280;64200;55.426;37.758;2024-03-22T20:36:43;98720.50;;;3.16;54.14
